createdAt,value
2017-10-02T00:01:50.348Z,30.37
2017-10-02T00:04:18.423Z,31.35
2017-10-02T00:06:47.304Z,28.67
2017-10-02T00:09:15.384Z,43.27
2017-10-02T00:11:44.219Z,32.05
2017-10-02T00:14:13.067Z,34.92
2017-10-02T00:16:41.903Z,33.78
2017-10-02T00:19:09.995Z,32.38
2017-10-02T00:21:38.071Z,34.22
2017-10-02T00:24:06.155Z,29.70
2017-10-02T00:26:34.226Z,31.77
2017-10-02T00:29:02.314Z,32.72
2017-10-02T00:31:30.392Z,34.38
2017-10-02T00:33:58.474Z,31.90
2017-10-02T00:36:27.311Z,29.80
2017-10-02T00:38:55.396Z,31.23
2017-10-02T00:41:23.476Z,29.90
2017-10-02T00:43:51.570Z,38.77
2017-10-02T00:46:19.651Z,34.30
2017-10-02T00:48:48.512Z,38.42
2017-10-02T00:51:16.591Z,35.60
2017-10-02T00:53:44.666Z,34.43
2017-10-02T00:56:12.756Z,38.88
2017-10-02T00:58:41.602Z,31.10
2017-10-02T01:01:09.683Z,34.73
2017-10-02T01:03:37.759Z,35.83
2017-10-02T01:06:05.842Z,37.50
2017-10-02T01:08:33.944Z,36.47
2017-10-02T01:11:02.795Z,35.85
2017-10-02T01:13:30.869Z,38.55
2017-10-02T01:15:58.961Z,30.85
2017-10-02T01:18:27.148Z,36.30
2017-10-02T01:20:56.004Z,37.90
2017-10-02T01:23:24.080Z,36.80
2017-10-02T01:25:52.151Z,30.97
2017-10-02T01:28:20.245Z,33.87
2017-10-02T01:30:48.323Z,32.83
2017-10-02T01:33:16.400Z,35.97
2017-10-02T01:35:44.481Z,37.08
2017-10-02T01:38:13.343Z,39.78
2017-10-02T01:40:41.407Z,42.03
2017-10-02T01:43:09.500Z,41.63
2017-10-02T01:45:37.580Z,40.67
2017-10-02T01:48:06.441Z,42.83
2017-10-02T01:50:34.513Z,45.47
2017-10-02T01:53:02.582Z,43.23
2017-10-02T01:55:30.664Z,40.93
2017-10-02T01:57:58.732Z,41.43
2017-10-02T02:00:26.828Z,45.90
2017-10-02T02:02:54.922Z,46.97
2017-10-02T02:05:23.764Z,36.53
2017-10-02T02:07:51.834Z,38.80
2017-10-02T02:10:19.916Z,45.03
2017-10-02T02:12:47.982Z,32.70
2017-10-02T02:15:16.068Z,41.40
2017-10-02T02:17:44.148Z,42.57
2017-10-02T02:20:12.227Z,41.80
2017-10-02T02:22:40.297Z,46.03
2017-10-02T02:25:08.376Z,44.43
2017-10-02T02:27:36.443Z,44.57
2017-10-02T02:30:04.519Z,52.33
2017-10-02T02:32:32.592Z,40.80
2017-10-02T02:35:00.664Z,48.27
2017-10-02T02:37:28.821Z,40.50
2017-10-02T02:39:56.941Z,40.23
2017-10-02T02:42:25.775Z,42.73
2017-10-02T02:44:53.860Z,45.93
2017-10-02T02:47:21.935Z,35.07
2017-10-02T02:49:50.008Z,37.50
2017-10-02T02:52:18.083Z,44.93
2017-10-02T02:54:46.464Z,37.33
2017-10-02T02:57:14.551Z,43.57
2017-10-02T02:59:43.383Z,43.33
2017-10-02T03:02:11.459Z,39.93
2017-10-02T03:04:40.283Z,45.27
2017-10-02T03:07:08.369Z,44.20
2017-10-02T03:09:36.439Z,44.20
2017-10-02T03:12:04.565Z,39.43
2017-10-02T03:14:32.643Z,39.97
2017-10-02T03:17:00.735Z,43.90
2017-10-02T03:19:28.804Z,44.70
2017-10-02T03:21:56.888Z,51.70
2017-10-02T03:24:24.967Z,51.63
2017-10-02T03:26:53.056Z,46.37
2017-10-02T03:29:21.127Z,46.10
2017-10-02T03:31:49.195Z,53.07
2017-10-02T03:34:17.280Z,53.10
2017-10-02T03:36:46.130Z,60.50
2017-10-02T03:39:14.231Z,54.58
2017-10-02T03:41:42.303Z,56.53
2017-10-02T03:44:10.383Z,46.40
2017-10-02T03:46:38.688Z,48.13
2017-10-02T03:49:06.758Z,55.97
2017-10-02T03:51:34.823Z,49.97
2017-10-02T03:54:02.901Z,45.15
2017-10-02T03:56:31.735Z,47.37
2017-10-02T03:58:59.824Z,49.97
2017-10-02T04:01:27.899Z,56.33
2017-10-02T04:03:55.978Z,49.23
2017-10-02T04:06:24.051Z,48.27
2017-10-02T04:08:52.124Z,49.20
2017-10-02T04:11:20.200Z,58.77
2017-10-02T04:13:49.093Z,55.13
2017-10-02T04:16:17.175Z,100.87
2017-10-02T04:18:46.032Z,91.73
2017-10-02T04:21:14.103Z,62.13
2017-10-02T04:23:42.175Z,45.27
2017-10-02T04:26:10.259Z,45.23
2017-10-02T04:28:38.340Z,45.67
2017-10-02T04:31:06.416Z,54.27
2017-10-02T04:33:34.488Z,46.40
2017-10-02T04:36:02.570Z,50.73
2017-10-02T04:38:31.417Z,49.57
2017-10-02T04:40:59.500Z,42.97
2017-10-02T04:43:27.571Z,46.07
2017-10-02T04:45:55.674Z,47.57
2017-10-02T04:48:24.541Z,48.80
2017-10-02T04:50:52.612Z,50.95
2017-10-02T04:53:20.712Z,59.43
2017-10-02T04:55:49.547Z,56.50
2017-10-02T04:58:17.632Z,46.80
2017-10-02T05:00:45.698Z,57.77
2017-10-02T05:03:13.801Z,57.60
2017-10-02T05:05:41.871Z,44.37
2017-10-02T05:08:09.959Z,49.67
2017-10-02T05:10:38.031Z,54.73
2017-10-02T05:13:06.111Z,58.37
2017-10-02T05:15:34.183Z,62.17
2017-10-02T05:18:03.028Z,59.07
2017-10-02T05:20:31.127Z,66.37
2017-10-02T05:22:59.202Z,62.73
2017-10-02T05:25:27.276Z,67.70
2017-10-02T05:27:55.375Z,61.37
2017-10-02T05:30:24.211Z,61.27
2017-10-02T05:32:52.307Z,77.53
2017-10-02T05:35:20.384Z,59.63
2017-10-02T05:37:48.458Z,60.90
2017-10-02T05:40:16.540Z,68.00
2017-10-02T05:42:45.428Z,66.23
2017-10-02T05:45:13.511Z,75.87
2017-10-02T05:47:42.374Z,62.88
2017-10-02T05:50:10.482Z,58.95
2017-10-02T05:52:39.331Z,63.97
2017-10-02T05:55:07.421Z,62.97
2017-10-02T05:57:35.494Z,67.20
2017-10-02T06:00:03.583Z,69.72
2017-10-02T06:02:32.435Z,61.93
2017-10-02T06:05:00.511Z,61.47
2017-10-02T06:07:28.582Z,73.63
2017-10-02T06:09:56.682Z,71.00
2017-10-02T06:12:24.759Z,63.67
2017-10-02T06:14:52.831Z,60.17
2017-10-02T06:17:20.923Z,64.83
2017-10-02T06:19:49.763Z,77.60
2017-10-02T06:22:17.849Z,65.77
2017-10-02T06:24:46.191Z,63.50
2017-10-02T06:27:14.283Z,55.33
2017-10-02T06:29:42.408Z,55.07
2017-10-02T06:32:11.268Z,59.87
2017-10-02T06:34:39.361Z,58.60
2017-10-02T06:37:07.430Z,62.37
2017-10-02T06:39:35.500Z,59.10
2017-10-02T06:42:03.599Z,58.03
2017-10-02T06:44:31.687Z,60.83
2017-10-02T06:46:59.832Z,55.53
2017-10-02T06:49:28.683Z,49.70
2017-10-02T06:51:56.816Z,52.90
2017-10-02T06:54:24.897Z,57.17
2017-10-02T06:56:52.979Z,54.37
2017-10-02T06:59:21.112Z,49.50
2017-10-02T07:01:49.191Z,49.13
2017-10-02T07:04:18.043Z,57.40
2017-10-02T07:06:46.127Z,49.77
2017-10-02T07:09:14.214Z,46.43
2017-10-02T07:11:42.316Z,45.67
2017-10-02T07:14:10.443Z,49.43
2017-10-02T07:16:38.528Z,47.70
2017-10-02T07:19:06.626Z,45.07
2017-10-02T07:21:35.476Z,39.80
2017-10-02T07:24:03.575Z,43.93
2017-10-02T07:26:31.691Z,42.00
2017-10-02T07:29:00.532Z,43.87
2017-10-02T07:31:28.612Z,35.57
2017-10-02T07:33:57.468Z,38.03
2017-10-02T07:36:25.588Z,38.60
2017-10-02T07:38:54.432Z,34.23
2017-10-02T07:41:22.519Z,35.40
2017-10-02T07:43:50.590Z,36.47
2017-10-02T07:46:18.679Z,36.03
2017-10-02T07:48:46.803Z,37.53
2017-10-02T07:51:15.665Z,31.47
2017-10-02T07:53:44.537Z,32.67
2017-10-02T07:56:13.422Z,32.23
2017-10-02T07:58:41.524Z,34.77
2017-10-02T08:01:09.679Z,31.83
2017-10-02T08:03:38.540Z,32.60
2017-10-02T08:06:06.623Z,29.63
2017-10-02T08:08:34.786Z,33.37
2017-10-02T08:11:02.876Z,28.70
2017-10-02T08:13:30.984Z,27.37
2017-10-02T08:15:59.178Z,27.93
2017-10-02T08:18:27.276Z,27.00
2017-10-02T08:20:55.400Z,29.27
2017-10-02T08:23:24.271Z,25.43
2017-10-02T08:25:53.152Z,28.40
2017-10-02T08:28:21.256Z,28.03
2017-10-02T08:30:50.113Z,29.40
2017-10-02T08:33:18.187Z,27.43
2017-10-02T08:35:46.408Z,27.10
2017-10-02T08:38:14.551Z,25.13
2017-10-02T08:40:43.417Z,28.57
2017-10-02T08:43:11.587Z,25.47
2017-10-02T08:45:39.680Z,27.00
2017-10-02T08:48:07.770Z,23.80
2017-10-02T08:50:36.640Z,26.00
2017-10-02T08:53:04.750Z,24.13
2017-10-02T08:55:33.603Z,22.60
2017-10-02T08:58:01.691Z,22.47
2017-10-02T09:00:31.749Z,23.03
2017-10-02T09:02:59.846Z,25.10
2017-10-02T09:05:27.961Z,27.80
2017-10-02T09:07:56.821Z,24.63
2017-10-02T09:10:24.905Z,19.57
2017-10-02T09:12:52.996Z,21.00
2017-10-02T09:15:21.851Z,20.20
2017-10-02T09:17:49.947Z,19.40
2017-10-02T09:20:18.037Z,19.33
2017-10-02T09:22:46.909Z,17.10
2017-10-02T09:25:15.173Z,20.50
2017-10-02T09:27:43.271Z,16.53
2017-10-02T09:30:12.153Z,16.90
2017-10-02T09:32:40.232Z,15.30
2017-10-02T09:35:08.308Z,17.03
2017-10-02T09:37:37.190Z,18.50
2017-10-02T09:40:05.267Z,15.37
2017-10-02T09:42:34.155Z,13.20
2017-10-02T09:45:02.271Z,16.73
2017-10-02T09:47:30.368Z,14.57
2017-10-02T09:49:58.524Z,15.53
2017-10-02T09:52:26.643Z,11.87
2017-10-02T09:54:54.736Z,14.60
2017-10-02T09:57:23.595Z,13.90
2017-10-02T09:59:51.757Z,17.87
2017-10-02T10:02:19.852Z,14.63
2017-10-02T10:04:47.949Z,14.80
2017-10-02T10:07:16.811Z,16.90
2017-10-02T10:09:44.912Z,13.20
2017-10-02T10:12:13.792Z,12.80
2017-10-02T10:14:41.892Z,18.20
2017-10-02T10:17:10.016Z,15.43
2017-10-02T10:19:38.106Z,13.27
2017-10-02T10:22:06.204Z,17.37
2017-10-02T10:24:35.072Z,13.53
2017-10-02T10:27:03.160Z,14.23
2017-10-02T10:29:32.035Z,14.40
2017-10-02T10:32:00.124Z,11.80
2017-10-02T10:34:29.068Z,13.60
2017-10-02T10:36:57.147Z,11.90
2017-10-02T10:39:25.304Z,13.77
2017-10-02T10:41:53.398Z,11.87
2017-10-02T10:44:21.520Z,17.23
2017-10-02T10:46:50.384Z,13.03
2017-10-02T10:49:19.307Z,11.20
2017-10-02T10:51:48.168Z,14.17
2017-10-02T10:54:16.252Z,13.77
2017-10-02T10:56:45.120Z,11.40
2017-10-02T10:59:13.212Z,11.20
2017-10-02T11:01:41.303Z,11.10
2017-10-02T11:04:10.152Z,9.77
2017-10-02T11:06:38.239Z,9.97
2017-10-02T11:09:06.311Z,10.03
2017-10-02T11:11:34.387Z,10.67
2017-10-02T11:14:02.455Z,8.30
2017-10-02T11:16:30.543Z,9.70
2017-10-02T11:18:59.424Z,11.10
2017-10-02T11:21:27.495Z,9.97
2017-10-02T11:23:55.624Z,9.80
2017-10-02T11:26:23.692Z,9.90
2017-10-02T11:28:52.541Z,11.00
2017-10-02T11:31:21.387Z,9.33
2017-10-02T11:33:49.466Z,8.10
2017-10-02T11:36:17.536Z,9.93
2017-10-02T11:38:45.615Z,9.97
2017-10-02T11:41:13.686Z,8.87
2017-10-02T11:43:42.556Z,8.67
2017-10-02T11:46:10.677Z,8.50
2017-10-02T11:48:38.747Z,7.50
2017-10-02T11:51:06.819Z,8.87
2017-10-02T11:53:34.901Z,7.60
2017-10-02T11:56:02.976Z,7.50
2017-10-02T11:58:31.830Z,7.77
2017-10-02T12:00:59.902Z,10.33
2017-10-02T12:03:27.971Z,7.67
2017-10-02T12:05:57.282Z,6.80
2017-10-02T12:08:25.342Z,7.17
2017-10-02T12:10:53.420Z,7.80
2017-10-02T12:13:21.638Z,7.07
2017-10-02T12:15:50.488Z,6.93
2017-10-02T12:18:18.570Z,6.20
2017-10-02T12:20:46.651Z,6.00
2017-10-02T12:23:14.733Z,5.80
2017-10-02T12:25:42.807Z,6.37
2017-10-02T12:28:11.363Z,8.60
2017-10-02T12:30:39.447Z,5.57
2017-10-02T12:33:07.511Z,6.03
2017-10-02T12:35:35.606Z,7.73
2017-10-02T12:38:16.738Z,5.70
2017-10-02T12:40:46.112Z,6.50
2017-10-02T12:43:14.956Z,6.70
2017-10-02T12:45:43.019Z,6.27
2017-10-02T12:48:11.112Z,5.30
2017-10-02T12:50:39.198Z,5.87
2017-10-02T12:53:07.270Z,6.07
2017-10-02T12:55:35.336Z,5.50
2017-10-02T12:58:03.424Z,5.07
2017-10-02T13:00:32.252Z,4.70
2017-10-02T13:03:00.334Z,4.57
2017-10-02T13:05:28.452Z,5.00
2017-10-02T13:07:56.538Z,4.40
2017-10-02T13:10:25.379Z,4.50
2017-10-02T13:12:53.476Z,4.57
2017-10-02T13:15:21.549Z,4.57
2017-10-02T13:17:49.628Z,5.30
2017-10-02T13:20:17.707Z,5.30
2017-10-02T13:22:45.779Z,4.50
2017-10-02T13:25:14.628Z,4.80
2017-10-02T13:27:42.692Z,9.43
2017-10-02T13:30:10.779Z,5.23
2017-10-02T13:32:38.851Z,4.80
2017-10-02T13:35:06.927Z,5.60
2017-10-02T13:37:35.040Z,5.20
2017-10-02T13:40:03.128Z,5.03
2017-10-02T13:42:31.205Z,5.20
2017-10-02T13:45:00.050Z,4.53
2017-10-02T13:47:28.140Z,11.53
2017-10-02T13:49:56.215Z,5.60
2017-10-02T13:52:24.307Z,6.70
2017-10-02T13:54:53.176Z,5.40
2017-10-02T13:57:21.231Z,6.07
2017-10-02T13:59:49.318Z,7.57
2017-10-02T14:02:17.382Z,6.10
2017-10-02T14:04:45.468Z,6.40
2017-10-02T14:07:13.544Z,6.10
2017-10-02T14:09:41.616Z,6.27
2017-10-02T14:12:09.700Z,9.53
2017-10-02T14:14:38.527Z,6.90
2017-10-02T14:17:06.635Z,13.87
2017-10-02T14:19:34.695Z,8.00
2017-10-02T14:22:02.776Z,9.03
2017-10-02T14:24:30.848Z,6.27
2017-10-02T14:26:58.925Z,9.70
2017-10-02T14:29:27.003Z,8.37
2017-10-02T14:31:55.089Z,7.53
2017-10-02T14:34:23.923Z,11.07
2017-10-02T14:36:51.991Z,12.90
2017-10-02T14:39:20.066Z,7.37
2017-10-02T14:41:48.145Z,8.43
2017-10-02T14:44:16.227Z,8.27
2017-10-02T14:46:44.303Z,7.90
2017-10-02T14:49:12.402Z,7.57
2017-10-02T14:51:40.475Z,24.43
2017-10-02T14:54:08.567Z,12.60
2017-10-02T14:56:37.424Z,14.70
2017-10-02T14:59:05.498Z,14.20
2017-10-02T15:01:33.605Z,15.63
2017-10-02T15:04:01.718Z,17.10
2017-10-02T15:06:29.795Z,11.73
2017-10-02T15:08:57.888Z,11.10
2017-10-02T15:11:25.968Z,13.37
2017-10-02T15:13:54.034Z,12.77
2017-10-02T15:16:22.119Z,12.43
2017-10-02T15:18:50.192Z,11.73
2017-10-02T15:21:18.276Z,15.27
2017-10-02T15:23:47.137Z,10.90
2017-10-02T15:26:15.279Z,14.27
2017-10-02T15:28:43.372Z,16.37
2017-10-02T15:31:11.468Z,13.03
2017-10-02T15:33:39.635Z,12.50
2017-10-02T15:36:07.747Z,16.30
2017-10-02T15:38:36.591Z,13.00
2017-10-02T15:41:04.749Z,12.93
2017-10-02T15:43:32.856Z,12.40
2017-10-02T15:46:00.939Z,15.27
2017-10-02T15:48:29.040Z,13.53
2017-10-02T15:50:57.143Z,13.30
2017-10-02T15:53:25.244Z,14.20
2017-10-02T15:55:53.328Z,20.13
2017-10-02T15:58:21.420Z,15.37
2017-10-02T16:00:50.267Z,14.73
2017-10-02T16:03:18.365Z,16.67
2017-10-02T16:05:46.435Z,15.73
2017-10-02T16:08:14.525Z,16.90
2017-10-02T16:10:43.376Z,13.80
2017-10-02T16:13:11.490Z,14.70
2017-10-02T16:15:40.364Z,15.53
2017-10-02T16:18:08.443Z,13.17
2017-10-02T16:20:36.528Z,14.40
2017-10-02T16:23:05.376Z,22.03
2017-10-02T16:25:33.515Z,26.60
2017-10-02T16:28:01.593Z,18.30
2017-10-02T16:30:30.448Z,13.40
2017-10-02T16:32:58.601Z,13.00
2017-10-02T16:35:26.687Z,13.90
2017-10-02T16:37:54.763Z,14.00
2017-10-02T16:40:22.843Z,16.30
2017-10-02T16:42:50.919Z,17.77
2017-10-02T16:45:19.220Z,20.47
2017-10-02T16:47:47.304Z,21.03
2017-10-02T16:50:16.155Z,17.80
2017-10-02T16:52:45.011Z,18.23
2017-10-02T16:55:13.088Z,16.40
2017-10-02T16:57:41.166Z,15.20
2017-10-02T17:00:09.247Z,12.50
2017-10-02T17:02:37.327Z,23.93
2017-10-02T17:05:05.403Z,15.97
2017-10-02T17:07:33.496Z,18.90
2017-10-02T17:10:02.333Z,17.27
2017-10-02T17:12:30.408Z,16.93
2017-10-02T17:14:58.487Z,17.00
2017-10-02T17:17:26.575Z,18.10
2017-10-02T17:19:54.647Z,18.50
2017-10-02T17:22:22.732Z,17.17
2017-10-02T17:24:51.576Z,23.30
2017-10-02T17:27:19.660Z,17.07
2017-10-02T17:29:47.749Z,16.70
2017-10-02T17:32:15.850Z,16.00
2017-10-02T17:34:44.697Z,13.47
2017-10-02T17:37:12.779Z,13.27
2017-10-02T17:39:40.869Z,13.37
2017-10-02T17:42:08.939Z,13.10
2017-10-02T17:44:37.041Z,12.30
2017-10-02T17:47:05.879Z,12.90
2017-10-02T17:49:33.991Z,18.63
2017-10-02T17:52:02.884Z,15.00
2017-10-02T17:54:31.752Z,20.70
2017-10-02T17:56:59.908Z,17.20
2017-10-02T17:59:27.997Z,26.33
2017-10-02T18:01:56.093Z,22.80
2017-10-02T18:04:24.960Z,16.80
2017-10-02T18:06:53.040Z,22.30
2017-10-02T18:09:21.112Z,20.37
2017-10-02T18:11:49.196Z,20.83
2017-10-02T18:14:18.044Z,16.20
2017-10-02T18:16:46.887Z,18.33
2017-10-02T18:19:15.758Z,19.47
2017-10-02T18:21:43.855Z,17.73
2017-10-02T18:24:12.784Z,17.43
2017-10-02T18:26:40.872Z,19.57
2017-10-02T18:29:08.942Z,15.93
2017-10-02T18:31:37.024Z,17.60
2017-10-02T18:34:05.104Z,16.13
2017-10-02T18:36:33.190Z,15.40
2017-10-02T18:39:01.264Z,15.10
2017-10-02T18:41:29.361Z,21.23
2017-10-02T18:43:58.200Z,38.07
2017-10-02T18:46:26.280Z,16.73
2017-10-02T18:48:54.371Z,12.50
2017-10-02T18:51:22.444Z,12.93
2017-10-02T18:53:50.523Z,13.17
2017-10-02T18:56:19.366Z,15.67
2017-10-02T18:58:47.445Z,13.23
2017-10-02T19:01:15.524Z,8.40
2017-10-02T19:03:43.611Z,10.50
2017-10-02T19:06:11.700Z,8.33
2017-10-02T19:08:39.776Z,7.60
2017-10-02T19:11:07.844Z,8.40
2017-10-02T19:13:35.927Z,10.77
2017-10-02T19:16:04.760Z,8.57
2017-10-02T19:18:33.611Z,7.37
2017-10-02T19:21:02.455Z,11.43
2017-10-02T19:23:30.526Z,7.10
2017-10-02T19:25:58.603Z,8.93
2017-10-02T19:28:26.684Z,8.50
2017-10-02T19:30:54.761Z,9.13
2017-10-02T19:33:22.841Z,11.93
2017-10-02T19:35:50.931Z,10.37
2017-10-02T19:38:19.771Z,10.73
2017-10-02T19:40:47.855Z,9.47
2017-10-02T19:43:15.960Z,9.50
2017-10-02T19:45:44.039Z,10.00
2017-10-02T19:48:12.879Z,9.70
2017-10-02T19:50:40.954Z,7.97
2017-10-02T19:53:09.029Z,9.57
2017-10-02T19:55:37.124Z,6.67
2017-10-02T19:58:05.200Z,8.43
2017-10-02T20:00:33.263Z,5.87
2017-10-02T20:03:01.365Z,188.27
2017-10-02T20:05:30.209Z,7.20
2017-10-02T20:07:58.318Z,5.53
2017-10-02T20:10:26.362Z,8.90
2017-10-02T20:12:54.451Z,10.87
2017-10-02T20:15:22.531Z,16.47
2017-10-02T20:17:50.626Z,11.40
2017-10-02T20:20:19.472Z,17.50
2017-10-02T20:22:47.571Z,11.73
2017-10-02T20:25:15.640Z,6.17
2017-10-02T20:27:43.729Z,5.47
2017-10-02T20:30:12.568Z,10.10
2017-10-02T20:32:40.675Z,32.63
2017-10-02T20:35:08.755Z,26.10
2017-10-02T20:37:36.834Z,13.23
2017-10-02T20:40:05.688Z,6.50
2017-10-02T20:42:33.764Z,14.40
2017-10-02T20:45:01.852Z,8.37
2017-10-02T20:47:29.930Z,26.23
2017-10-02T20:49:58.020Z,11.87
2017-10-02T20:52:26.858Z,9.97
2017-10-02T20:54:54.947Z,8.20
2017-10-02T20:57:23.024Z,5.83
2017-10-02T20:59:51.113Z,7.50
2017-10-02T21:02:19.188Z,7.00
2017-10-02T21:04:47.973Z,5.63
2017-10-02T21:07:16.055Z,4.67
2017-10-02T21:09:44.129Z,16.63
2017-10-02T21:12:12.982Z,8.60
2017-10-02T21:14:41.050Z,5.13
2017-10-02T21:17:09.131Z,5.57
2017-10-02T21:19:37.200Z,4.90
2017-10-02T21:22:05.288Z,5.20
2017-10-02T21:24:33.358Z,4.13
2017-10-02T21:27:01.434Z,4.20
2017-10-02T21:29:29.503Z,7.50
2017-10-02T21:31:57.588Z,4.37
2017-10-02T21:34:25.661Z,4.23
2017-10-02T21:36:53.736Z,4.77
2017-10-02T21:39:21.817Z,5.47
2017-10-02T21:41:49.895Z,4.80
2017-10-02T21:44:18.773Z,4.20
2017-10-02T21:46:46.844Z,5.33
2017-10-02T21:49:15.148Z,4.37
2017-10-02T21:51:44.003Z,5.07
2017-10-02T21:54:12.084Z,6.17
2017-10-02T21:56:40.160Z,14.10
2017-10-02T21:59:08.252Z,10.73
2017-10-02T22:01:37.101Z,12.40
2017-10-02T22:04:06.624Z,8.60
2017-10-02T22:06:34.708Z,7.07
2017-10-02T22:09:02.800Z,8.40
2017-10-02T22:11:30.919Z,8.30
2017-10-02T22:13:58.997Z,6.37
2017-10-02T22:16:27.784Z,6.00
2017-10-02T22:18:55.852Z,8.70
2017-10-02T22:21:24.703Z,5.47
2017-10-02T22:23:52.776Z,4.80
2017-10-02T22:26:20.863Z,6.17
2017-10-02T22:28:49.698Z,8.87
2017-10-02T22:31:17.767Z,6.40
2017-10-02T22:33:45.849Z,6.67
2017-10-02T22:36:13.916Z,8.07
2017-10-02T22:38:41.994Z,8.73
2017-10-02T22:41:10.071Z,6.80
2017-10-02T22:43:38.139Z,7.33
2017-10-02T22:46:06.310Z,11.77
2017-10-02T22:48:34.377Z,5.93
2017-10-02T22:51:02.460Z,6.17
2017-10-02T22:53:30.536Z,10.50
2017-10-02T22:55:58.639Z,11.90
2017-10-02T22:58:26.727Z,7.10
2017-10-02T23:00:55.554Z,8.43
2017-10-02T23:03:23.752Z,10.30
2017-10-02T23:05:51.817Z,7.93
2017-10-02T23:08:19.920Z,8.77
2017-10-02T23:10:48.025Z,10.17
2017-10-02T23:13:16.127Z,8.73
2017-10-02T23:15:44.210Z,10.80
2017-10-02T23:18:12.296Z,9.70
2017-10-02T23:20:41.165Z,12.03
2017-10-02T23:23:09.249Z,6.17
2017-10-02T23:25:38.129Z,23.60
2017-10-02T23:28:06.216Z,26.40
2017-10-02T23:30:34.330Z,21.47
2017-10-02T23:33:02.424Z,11.63
2017-10-02T23:35:30.555Z,10.83
2017-10-02T23:37:59.399Z,15.63
2017-10-02T23:40:27.483Z,12.27
2017-10-02T23:42:55.576Z,9.60
2017-10-02T23:45:24.432Z,7.47
2017-10-02T23:47:52.538Z,15.63
2017-10-02T23:50:21.061Z,9.23
2017-10-02T23:52:49.181Z,11.70
2017-10-02T23:55:17.260Z,11.17
2017-10-02T23:57:46.145Z,13.23
